createdAt,value
2019-01-20T00:00:58.958Z,33.17
2019-01-20T00:03:27.529Z,33.00
2019-01-20T00:05:56.342Z,31.60
2019-01-20T00:08:25.234Z,35.37
2019-01-20T00:10:53.790Z,36.70
2019-01-20T00:13:24.045Z,36.73
2019-01-20T00:15:52.976Z,38.33
2019-01-20T00:18:21.818Z,32.13
2019-01-20T00:20:50.383Z,33.50
2019-01-20T00:23:19.189Z,34.07
2019-01-20T00:25:47.746Z,33.07
2019-01-20T00:28:16.801Z,38.80
2019-01-20T00:30:45.757Z,39.87
2019-01-20T00:33:14.544Z,33.30
2019-01-20T00:35:43.112Z,30.83
2019-01-20T00:38:11.929Z,38.97
2019-01-20T00:40:40.549Z,34.13
2019-01-20T00:43:09.232Z,44.27
2019-01-20T00:45:38.398Z,33.77
2019-01-20T00:48:07.028Z,38.00
2019-01-20T00:50:38.296Z,26.33
2019-01-20T00:53:06.903Z,32.43
2019-01-20T00:55:35.671Z,31.07
2019-01-20T00:58:04.752Z,35.10
2019-01-20T01:00:34.158Z,39.97
2019-01-20T01:03:02.797Z,34.87
2019-01-20T01:05:31.769Z,31.90
2019-01-20T01:08:02.906Z,49.47
2019-01-20T01:10:31.717Z,34.20
2019-01-20T01:13:03.894Z,33.60
2019-01-20T01:15:33.074Z,30.20
2019-01-20T01:18:01.716Z,31.20
2019-01-20T01:20:33.291Z,33.60
2019-01-20T01:23:01.864Z,38.17
2019-01-20T01:25:30.664Z,34.43
2019-01-20T01:27:59.229Z,32.03
2019-01-20T01:30:28.847Z,48.07
2019-01-20T01:32:57.427Z,37.77
2019-01-20T01:35:26.487Z,37.30
2019-01-20T01:37:55.080Z,38.03
2019-01-20T01:40:23.808Z,32.00
2019-01-20T01:42:52.394Z,37.63
2019-01-20T01:45:21.995Z,33.07
2019-01-20T01:47:50.635Z,34.43
2019-01-20T01:50:19.894Z,37.07
2019-01-20T01:52:48.464Z,41.93
2019-01-20T01:55:17.355Z,41.03
2019-01-20T01:57:46.245Z,35.17
2019-01-20T02:00:20.843Z,34.40
2019-01-20T02:02:49.796Z,40.37
2019-01-20T02:05:19.408Z,33.57
2019-01-20T02:07:48.217Z,44.17
2019-01-20T02:10:21.332Z,33.37
2019-01-20T02:12:50.481Z,36.70
2019-01-20T02:15:20.891Z,40.03
2019-01-20T02:17:50.008Z,39.67
2019-01-20T02:20:24.138Z,35.00
2019-01-20T02:22:53.439Z,45.27
2019-01-20T02:25:22.070Z,37.63
2019-01-20T02:27:52.686Z,36.27
2019-01-20T02:30:26.927Z,35.67
2019-01-20T02:32:55.827Z,31.70
2019-01-20T02:35:24.893Z,38.70
2019-01-20T02:37:53.530Z,34.83
2019-01-20T02:40:22.484Z,35.83
2019-01-20T02:42:51.108Z,41.53
2019-01-20T02:45:20.063Z,39.63
2019-01-20T02:47:48.947Z,36.87
2019-01-20T02:50:18.854Z,37.27
2019-01-20T02:52:47.594Z,35.30
2019-01-20T02:55:16.651Z,39.30
2019-01-20T02:57:45.394Z,44.97
2019-01-20T03:00:20.134Z,31.63
2019-01-20T03:02:49.271Z,33.17
2019-01-20T03:05:19.361Z,39.17
2019-01-20T03:07:47.998Z,28.87
2019-01-20T03:10:17.400Z,33.30
2019-01-20T03:12:46.234Z,34.73
2019-01-20T03:15:15.589Z,38.10
2019-01-20T03:17:44.202Z,40.97
2019-01-20T03:20:18.867Z,38.30
2019-01-20T03:22:47.964Z,39.33
2019-01-20T03:25:17.974Z,39.30
2019-01-20T03:27:46.538Z,37.40
2019-01-20T03:30:18.321Z,40.23
2019-01-20T03:32:47.016Z,41.97
2019-01-20T03:35:18.556Z,40.70
2019-01-20T03:37:47.220Z,38.13
2019-01-20T03:40:18.984Z,31.80
2019-01-20T03:42:48.588Z,31.93
2019-01-20T03:45:18.805Z,37.43
2019-01-20T03:47:47.698Z,34.30
2019-01-20T03:50:17.802Z,33.27
2019-01-20T03:52:47.315Z,36.13
2019-01-20T03:55:19.802Z,34.40
2019-01-20T03:57:48.984Z,44.10
2019-01-20T04:00:20.158Z,33.90
2019-01-20T04:02:50.677Z,36.30
2019-01-20T04:05:19.309Z,38.93
2019-01-20T04:07:48.467Z,36.53
2019-01-20T04:10:17.381Z,28.23
2019-01-20T04:12:45.948Z,31.93
2019-01-20T04:15:16.032Z,29.83
2019-01-20T04:17:44.867Z,35.47
2019-01-20T04:20:15.039Z,39.10
2019-01-20T04:22:43.681Z,31.67
2019-01-20T04:25:15.809Z,31.00
2019-01-20T04:27:44.369Z,35.17
2019-01-20T04:30:16.133Z,35.40
2019-01-20T04:32:44.707Z,32.30
2019-01-20T04:35:13.685Z,34.70
2019-01-20T04:37:42.320Z,28.23
2019-01-20T04:40:13.707Z,28.80
2019-01-20T04:42:42.284Z,35.93
2019-01-20T04:45:13.898Z,29.80
2019-01-20T04:47:42.542Z,36.23
2019-01-20T04:50:16.832Z,38.70
2019-01-20T04:52:45.478Z,30.30
2019-01-20T04:55:15.813Z,28.83
2019-01-20T04:57:46.253Z,33.90
2019-01-20T05:00:17.895Z,40.80
2019-01-20T05:02:46.613Z,31.67
2019-01-20T05:05:15.452Z,31.67
2019-01-20T05:07:44.363Z,37.50
2019-01-20T05:10:15.272Z,35.00
2019-01-20T05:12:44.402Z,35.40
2019-01-20T05:15:21.301Z,28.93
2019-01-20T05:17:49.940Z,32.13
2019-01-20T05:20:18.822Z,40.07
2019-01-20T05:22:47.389Z,36.80
2019-01-20T05:25:16.461Z,32.37
2019-01-20T05:27:45.033Z,30.33
2019-01-20T05:30:16.880Z,28.73
2019-01-20T05:32:45.806Z,36.83
2019-01-20T05:35:14.578Z,32.00
2019-01-20T05:37:43.281Z,33.13
2019-01-20T05:40:17.071Z,44.80
2019-01-20T05:42:46.394Z,41.70
2019-01-20T05:45:18.017Z,28.53
2019-01-20T05:47:46.582Z,28.63
2019-01-20T05:50:15.711Z,37.80
2019-01-20T05:52:44.330Z,35.83
2019-01-20T05:55:14.675Z,28.03
2019-01-20T05:57:43.900Z,33.87
2019-01-20T06:00:24.299Z,33.00
2019-01-20T06:02:53.548Z,35.03
2019-01-20T06:05:22.105Z,30.83
2019-01-20T06:07:50.977Z,35.80
2019-01-20T06:10:19.603Z,33.47
2019-01-20T06:12:53.965Z,29.87
2019-01-20T06:15:20.407Z,25.77
2019-01-20T06:17:49.743Z,25.80
2019-01-20T06:20:18.901Z,26.00
2019-01-20T06:22:47.744Z,30.70
2019-01-20T06:25:16.375Z,37.80
2019-01-20T06:27:45.158Z,30.77
2019-01-20T06:30:19.403Z,31.67
2019-01-20T06:32:48.727Z,32.50
2019-01-20T06:35:17.445Z,33.87
2019-01-20T06:37:46.326Z,29.53
2019-01-20T06:40:15.315Z,28.63
2019-01-20T06:42:43.895Z,39.63
2019-01-20T06:45:14.696Z,27.57
2019-01-20T06:47:43.245Z,36.87
2019-01-20T06:50:19.773Z,39.53
2019-01-20T06:52:48.417Z,34.97
2019-01-20T06:55:17.199Z,32.67
2019-01-20T06:57:45.975Z,29.90
2019-01-20T07:00:17.223Z,32.20
2019-01-20T07:02:45.778Z,34.77
2019-01-20T07:05:14.875Z,30.50
2019-01-20T07:07:43.877Z,30.80
2019-01-20T07:10:17.459Z,34.80
2019-01-20T07:12:46.271Z,39.80
2019-01-20T07:15:19.800Z,31.97
2019-01-20T07:17:48.695Z,39.60
2019-01-20T07:20:17.590Z,37.20
2019-01-20T07:22:46.372Z,30.23
2019-01-20T07:25:15.303Z,27.07
2019-01-20T07:27:43.993Z,32.67
2019-01-20T07:30:16.069Z,32.60
2019-01-20T07:32:44.707Z,31.53
2019-01-20T07:35:14.740Z,35.47
2019-01-20T07:37:44.272Z,38.80
2019-01-20T07:40:15.573Z,52.23
2019-01-20T07:42:44.153Z,36.83
2019-01-20T07:45:14.874Z,44.63
2019-01-20T07:47:43.607Z,84.17
2019-01-20T07:50:15.716Z,54.13
2019-01-20T07:52:44.291Z,61.27
2019-01-20T07:55:13.267Z,50.00
2019-01-20T07:57:41.960Z,40.80
2019-01-20T08:00:13.891Z,38.27
2019-01-20T08:02:42.518Z,38.93
2019-01-20T08:05:11.856Z,37.83
2019-01-20T08:07:40.447Z,37.80
2019-01-20T08:10:12.224Z,37.50
2019-01-20T08:12:40.934Z,38.47
2019-01-20T08:15:12.580Z,43.47
2019-01-20T08:17:41.144Z,57.23
2019-01-20T08:20:18.244Z,50.73
2019-01-20T08:22:46.887Z,52.70
2019-01-20T08:25:17.664Z,74.67
2019-01-20T08:27:46.462Z,56.80
2019-01-20T08:30:26.904Z,43.90
2019-01-20T08:32:55.815Z,37.20
2019-01-20T08:35:25.254Z,42.87
2019-01-20T08:37:54.341Z,63.87
2019-01-20T08:40:25.965Z,49.17
2019-01-20T08:42:54.611Z,50.90
2019-01-20T08:45:32.068Z,57.60
2019-01-20T08:48:03.863Z,71.43
2019-01-20T08:50:32.782Z,57.20
2019-01-20T08:53:01.352Z,49.93
2019-01-20T08:55:30.096Z,47.53
2019-01-20T08:57:58.750Z,70.17
2019-01-20T09:00:27.461Z,56.03
2019-01-20T09:02:56.028Z,60.43
2019-01-20T09:05:24.662Z,56.93
2019-01-20T09:07:53.276Z,46.50
2019-01-20T09:10:24.909Z,57.73
2019-01-20T09:12:54.277Z,48.43
2019-01-20T09:15:22.838Z,45.60
2019-01-20T09:17:51.476Z,48.43
2019-01-20T09:20:20.038Z,47.10
2019-01-20T09:22:48.677Z,52.03
2019-01-20T09:25:17.585Z,51.07
2019-01-20T09:27:46.535Z,46.50
2019-01-20T09:30:23.603Z,48.20
2019-01-20T09:32:52.308Z,53.37
2019-01-20T09:35:20.961Z,53.80
2019-01-20T09:37:49.875Z,48.53
2019-01-20T09:40:19.319Z,54.63
2019-01-20T09:42:47.889Z,49.87
2019-01-20T09:45:29.280Z,50.17
2019-01-20T09:47:58.156Z,50.93
2019-01-20T09:50:26.827Z,52.30
2019-01-20T09:52:55.479Z,54.87
2019-01-20T09:55:24.433Z,58.70
2019-01-20T09:57:53.062Z,49.37
2019-01-20T10:00:30.659Z,67.80
2019-01-20T10:02:59.457Z,148.60
2019-01-20T10:05:28.231Z,64.30
2019-01-20T10:07:56.927Z,49.70
2019-01-20T10:10:26.150Z,53.93
2019-01-20T10:12:54.765Z,51.93
2019-01-20T10:15:23.716Z,54.83
2019-01-20T10:17:52.345Z,51.27
2019-01-20T10:20:26.407Z,51.20
2019-01-20T10:22:55.507Z,62.47
2019-01-20T10:25:24.613Z,51.70
2019-01-20T10:27:53.169Z,60.03
2019-01-20T10:30:29.379Z,40.93
2019-01-20T10:32:58.035Z,44.93
2019-01-20T10:35:28.383Z,51.60
2019-01-20T10:37:58.875Z,41.73
2019-01-20T10:40:27.439Z,46.73
2019-01-20T10:42:56.098Z,47.27
2019-01-20T10:45:24.735Z,40.63
2019-01-20T10:47:53.371Z,44.03
2019-01-20T10:50:22.081Z,42.00
2019-01-20T10:52:50.787Z,44.47
2019-01-20T10:55:19.685Z,52.33
2019-01-20T10:57:48.586Z,53.60
2019-01-20T11:00:29.180Z,44.53
2019-01-20T11:02:58.057Z,38.70
2019-01-20T11:05:30.680Z,41.43
2019-01-20T11:07:57.473Z,40.83
2019-01-20T11:10:26.087Z,48.80
2019-01-20T11:12:54.733Z,41.83
2019-01-20T11:15:24.804Z,38.00
2019-01-20T11:17:53.429Z,37.60
2019-01-20T11:20:24.160Z,43.47
2019-01-20T11:22:54.624Z,48.13
2019-01-20T11:25:35.333Z,50.30
2019-01-20T11:28:04.277Z,44.93
2019-01-20T11:30:34.703Z,47.63
2019-01-20T11:33:03.587Z,47.53
2019-01-20T11:35:32.477Z,43.63
2019-01-20T11:38:01.363Z,41.97
2019-01-20T11:40:29.947Z,43.43
2019-01-20T11:42:58.575Z,63.03
2019-01-20T11:45:29.594Z,42.33
2019-01-20T11:47:58.463Z,37.93
2019-01-20T11:50:27.349Z,45.10
2019-01-20T11:52:56.005Z,40.83
2019-01-20T11:55:25.458Z,52.03
2019-01-20T11:57:54.158Z,39.37
2019-01-20T12:00:34.382Z,41.03
2019-01-20T12:03:03.011Z,37.97
2019-01-20T12:05:33.007Z,34.63
2019-01-20T12:08:01.589Z,36.87
2019-01-20T12:10:32.195Z,37.90
2019-01-20T12:13:02.410Z,41.07
2019-01-20T12:15:31.127Z,38.55
2019-01-20T12:17:59.852Z,43.97
2019-01-20T12:20:29.301Z,39.80
2019-01-20T12:22:58.149Z,41.47
2019-01-20T12:25:26.642Z,40.60
2019-01-20T12:27:55.420Z,38.87
2019-01-20T12:30:30.124Z,38.33
2019-01-20T12:32:58.863Z,32.47
2019-01-20T12:35:27.482Z,34.47
2019-01-20T12:37:56.354Z,40.53
2019-01-20T12:40:30.569Z,38.00
2019-01-20T12:42:59.495Z,37.43
2019-01-20T12:45:28.126Z,30.30
2019-01-20T12:47:56.950Z,35.33
2019-01-20T12:50:25.521Z,33.33
2019-01-20T12:52:54.820Z,31.40
2019-01-20T12:55:23.478Z,31.90
2019-01-20T12:57:52.136Z,36.83
2019-01-20T13:00:21.350Z,31.37
2019-01-20T13:02:49.990Z,35.73
2019-01-20T13:05:20.039Z,33.30
2019-01-20T13:07:48.965Z,33.93
2019-01-20T13:10:19.066Z,34.83
2019-01-20T13:12:48.272Z,38.40
2019-01-20T13:15:22.011Z,34.33
2019-01-20T13:17:51.306Z,35.53
2019-01-20T13:20:24.791Z,35.23
2019-01-20T13:22:53.862Z,34.50
2019-01-20T13:25:24.848Z,35.40
2019-01-20T13:27:53.917Z,39.97
2019-01-20T13:30:24.519Z,33.57
2019-01-20T13:32:53.258Z,41.43
2019-01-20T13:35:22.807Z,38.77
2019-01-20T13:37:54.837Z,33.67
2019-01-20T13:40:29.634Z,33.73
2019-01-20T13:42:58.404Z,47.27
2019-01-20T13:45:27.105Z,40.73
2019-01-20T13:47:55.753Z,30.23
2019-01-20T13:50:24.329Z,32.53
2019-01-20T13:52:53.731Z,29.37
2019-01-20T13:55:22.374Z,32.00
2019-01-20T13:57:51.057Z,30.23
2019-01-20T14:00:21.972Z,30.30
2019-01-20T14:02:50.631Z,33.53
2019-01-20T14:05:19.263Z,37.10
2019-01-20T14:07:48.658Z,28.93
2019-01-20T14:10:22.209Z,31.13
2019-01-20T14:12:50.778Z,32.77
2019-01-20T14:15:19.480Z,30.37
2019-01-20T14:17:48.122Z,32.37
2019-01-20T14:20:25.229Z,33.23
2019-01-20T14:22:54.294Z,29.00
2019-01-20T14:25:27.603Z,31.63
2019-01-20T14:27:56.461Z,30.63
2019-01-20T14:30:30.799Z,31.53
2019-01-20T14:32:59.530Z,30.67
2019-01-20T14:35:28.156Z,26.33
2019-01-20T14:37:58.058Z,34.30
2019-01-20T14:40:26.775Z,29.90
2019-01-20T14:42:55.467Z,32.53
2019-01-20T14:45:24.184Z,31.40
2019-01-20T14:47:52.829Z,32.60
2019-01-20T14:50:26.453Z,33.20
2019-01-20T14:52:55.925Z,34.07
2019-01-20T14:55:25.231Z,30.37
2019-01-20T14:57:53.861Z,31.07
2019-01-20T15:00:31.259Z,33.73
2019-01-20T15:02:59.969Z,27.77
2019-01-20T15:05:28.658Z,34.10
2019-01-20T15:07:57.926Z,37.13
2019-01-20T15:10:26.561Z,36.70
2019-01-20T15:12:55.134Z,36.07
2019-01-20T15:15:26.862Z,32.50
2019-01-20T15:17:55.521Z,37.60
2019-01-20T15:20:24.504Z,48.03
2019-01-20T15:22:53.435Z,39.07
2019-01-20T15:25:21.984Z,33.20
2019-01-20T15:27:50.832Z,53.07
2019-01-20T15:30:22.808Z,39.20
2019-01-20T15:32:51.832Z,36.97
2019-01-20T15:35:22.009Z,47.00
2019-01-20T15:37:50.908Z,42.50
2019-01-20T15:40:22.268Z,43.90
2019-01-20T15:42:51.021Z,46.90
2019-01-20T15:45:24.399Z,45.40
2019-01-20T15:47:53.026Z,45.93
2019-01-20T15:50:27.649Z,47.27
2019-01-20T15:52:56.472Z,36.80
2019-01-20T15:55:25.260Z,35.80
2019-01-20T15:57:53.983Z,48.47
2019-01-20T16:00:30.149Z,41.73
2019-01-20T16:02:58.944Z,37.83
2019-01-20T16:05:28.944Z,39.87
2019-01-20T16:07:57.882Z,37.80
2019-01-20T16:10:26.507Z,32.43
2019-01-20T16:12:55.302Z,37.40
2019-01-20T16:15:26.614Z,43.10
2019-01-20T16:17:55.935Z,39.07
2019-01-20T16:20:26.619Z,44.33
2019-01-20T16:22:55.400Z,36.63
2019-01-20T16:25:27.282Z,52.83
2019-01-20T16:27:55.925Z,35.57
2019-01-20T16:30:27.291Z,40.07
2019-01-20T16:32:55.934Z,32.03
2019-01-20T16:35:25.502Z,43.13
2019-01-20T16:37:54.808Z,39.03
2019-01-20T16:40:25.485Z,34.50
2019-01-20T16:42:54.103Z,39.43
2019-01-20T16:45:32.183Z,49.93
2019-01-20T16:47:58.636Z,52.23
2019-01-20T16:50:27.435Z,34.00
2019-01-20T16:52:56.131Z,36.83
2019-01-20T16:55:25.028Z,44.17
2019-01-20T16:57:53.685Z,43.47
2019-01-20T17:00:27.656Z,39.70
2019-01-20T17:02:56.537Z,39.20
2019-01-20T17:05:26.985Z,46.43
2019-01-20T17:07:55.704Z,44.70
2019-01-20T17:10:27.414Z,60.37
2019-01-20T17:12:56.261Z,49.73
2019-01-20T17:15:30.565Z,52.20
2019-01-20T17:17:59.301Z,46.83
2019-01-20T17:20:27.958Z,59.17
2019-01-20T17:22:56.558Z,41.57
2019-01-20T17:25:25.481Z,42.07
2019-01-20T17:27:54.271Z,44.17
2019-01-20T17:30:29.900Z,42.90
2019-01-20T17:32:58.750Z,38.13
2019-01-20T17:35:27.374Z,35.67
2019-01-20T17:37:56.428Z,48.97
2019-01-20T17:40:27.135Z,43.33
2019-01-20T17:42:55.784Z,51.37
2019-01-20T17:45:27.389Z,52.23
2019-01-20T17:47:56.024Z,48.60
2019-01-20T17:50:30.413Z,55.47
2019-01-20T17:52:59.133Z,50.47
2019-01-20T17:55:28.264Z,50.80
2019-01-20T17:57:56.845Z,47.67
2019-01-20T18:00:35.416Z,53.73
2019-01-20T18:03:05.419Z,49.90
2019-01-20T18:05:34.322Z,53.27
2019-01-20T18:08:02.889Z,51.60
2019-01-20T18:10:31.767Z,54.00
2019-01-20T18:13:00.401Z,51.40
2019-01-20T18:15:29.272Z,45.77
2019-01-20T18:17:58.813Z,44.93
2019-01-20T18:20:32.784Z,57.57
2019-01-20T18:23:01.530Z,46.30
2019-01-20T18:25:32.191Z,46.80
2019-01-20T18:28:00.923Z,55.17
2019-01-20T18:30:31.314Z,57.00
2019-01-20T18:33:00.020Z,44.43
2019-01-20T18:35:29.538Z,48.40
2019-01-20T18:37:58.186Z,46.53
2019-01-20T18:40:27.782Z,44.83
2019-01-20T18:42:56.685Z,36.87
2019-01-20T18:45:30.799Z,38.67
2019-01-20T18:47:59.420Z,43.97
2019-01-20T18:50:30.786Z,39.20
2019-01-20T18:52:59.355Z,46.27
2019-01-20T18:55:28.164Z,45.87
2019-01-20T18:57:57.119Z,43.37
2019-01-20T19:00:28.732Z,41.63
2019-01-20T19:02:57.374Z,45.27
2019-01-20T19:05:25.947Z,44.50
2019-01-20T19:07:55.643Z,40.10
2019-01-20T19:10:24.746Z,51.73
2019-01-20T19:12:53.445Z,54.43
2019-01-20T19:15:23.444Z,50.93
2019-01-20T19:17:52.624Z,42.93
2019-01-20T19:20:25.771Z,43.80
2019-01-20T19:22:57.440Z,42.77
2019-01-20T19:25:26.108Z,45.60
2019-01-20T19:27:54.992Z,51.33
2019-01-20T19:30:29.557Z,52.03
2019-01-20T19:32:58.421Z,41.13
2019-01-20T19:35:28.333Z,40.10
2019-01-20T19:37:57.331Z,49.57
2019-01-20T19:40:26.163Z,53.00
2019-01-20T19:42:54.804Z,56.90
2019-01-20T19:45:23.790Z,40.60
2019-01-20T19:47:52.508Z,41.30
2019-01-20T19:50:21.586Z,49.60
2019-01-20T19:52:50.804Z,44.97
2019-01-20T19:55:25.146Z,40.60
2019-01-20T19:57:53.971Z,42.50
2019-01-20T20:00:24.846Z,40.30
2019-01-20T20:02:53.642Z,45.93
2019-01-20T20:05:22.668Z,46.53
2019-01-20T20:07:52.743Z,41.33
2019-01-20T20:10:23.468Z,45.77
2019-01-20T20:12:52.376Z,42.80
2019-01-20T20:15:22.935Z,54.93
2019-01-20T20:17:51.640Z,47.93
2019-01-20T20:20:21.839Z,47.33
2019-01-20T20:22:50.561Z,47.60
2019-01-20T20:25:24.347Z,48.00
2019-01-20T20:27:53.985Z,47.60
2019-01-20T20:30:27.858Z,47.90
2019-01-20T20:32:57.046Z,45.43
2019-01-20T20:35:26.043Z,47.57
2019-01-20T20:37:55.006Z,44.10
2019-01-20T20:40:23.789Z,50.37
2019-01-20T20:42:52.352Z,50.00
2019-01-20T20:45:25.612Z,40.40
2019-01-20T20:47:54.443Z,45.53
2019-01-20T20:50:23.234Z,52.73
2019-01-20T20:52:51.960Z,43.93
2019-01-20T20:55:20.927Z,56.63
2019-01-20T20:57:49.654Z,43.97
2019-01-20T21:00:24.820Z,53.40
2019-01-20T21:02:53.487Z,47.27
2019-01-20T21:05:22.217Z,47.17
2019-01-20T21:07:51.164Z,44.40
2019-01-20T21:10:20.047Z,46.50
2019-01-20T21:12:48.756Z,44.43
2019-01-20T21:15:17.884Z,43.33
2019-01-20T21:17:48.355Z,53.57
2019-01-20T21:20:22.005Z,50.43
2019-01-20T21:22:50.707Z,44.37
2019-01-20T21:25:19.334Z,45.37
2019-01-20T21:27:48.841Z,42.60
2019-01-20T21:30:19.949Z,45.80
2019-01-20T21:32:48.624Z,50.20
2019-01-20T21:35:18.268Z,51.87
2019-01-20T21:37:47.391Z,49.40
2019-01-20T21:40:18.099Z,65.97
2019-01-20T21:42:47.692Z,42.03
2019-01-20T21:45:17.985Z,48.30
2019-01-20T21:47:47.280Z,44.90
2019-01-20T21:50:23.764Z,47.20
2019-01-20T21:52:52.481Z,57.00
2019-01-20T21:55:21.120Z,61.30
2019-01-20T21:57:49.906Z,50.60
2019-01-20T22:00:26.449Z,56.03
2019-01-20T22:02:55.647Z,44.87
2019-01-20T22:05:24.559Z,53.00
2019-01-20T22:07:53.166Z,47.80
2019-01-20T22:10:23.852Z,54.53
2019-01-20T22:12:52.556Z,46.90
2019-01-20T22:15:21.280Z,52.93
2019-01-20T22:17:49.987Z,58.43
2019-01-20T22:20:22.537Z,56.20
2019-01-20T22:22:51.953Z,61.00
2019-01-20T22:25:20.656Z,50.53
2019-01-20T22:27:49.441Z,50.03
2019-01-20T22:30:20.538Z,54.03
2019-01-20T22:32:50.901Z,57.57
2019-01-20T22:35:19.771Z,47.40
2019-01-20T22:37:48.477Z,48.13
2019-01-20T22:40:18.648Z,51.10
2019-01-20T22:42:47.354Z,53.37
2019-01-20T22:45:23.227Z,53.30
2019-01-20T22:47:52.163Z,53.67
2019-01-20T22:50:21.003Z,55.93
2019-01-20T22:52:49.727Z,44.27
2019-01-20T22:55:18.580Z,57.23
2019-01-20T22:57:47.491Z,76.90
2019-01-20T23:00:39.988Z,70.97
2019-01-20T23:03:08.626Z,54.10
2019-01-20T23:05:37.340Z,58.17
2019-01-20T23:08:06.037Z,55.20
2019-01-20T23:10:34.680Z,54.00
2019-01-20T23:13:03.317Z,56.00
2019-01-20T23:15:32.131Z,52.63
2019-01-20T23:18:00.845Z,49.23
2019-01-20T23:20:29.455Z,50.20
2019-01-20T23:22:58.147Z,52.93
2019-01-20T23:25:26.726Z,49.17
2019-01-20T23:27:55.418Z,51.93
2019-01-20T23:30:24.120Z,56.30
2019-01-20T23:32:53.270Z,58.80
2019-01-20T23:35:21.906Z,54.17
2019-01-20T23:37:50.613Z,77.93
2019-01-20T23:40:19.306Z,55.30
2019-01-20T23:42:48.222Z,134.70
2019-01-20T23:45:16.784Z,84.37
2019-01-20T23:47:45.442Z,66.57
2019-01-20T23:50:20.000Z,54.73
2019-01-20T23:52:48.733Z,59.50
2019-01-20T23:55:17.658Z,57.70
2019-01-20T23:57:46.528Z,58.80
